Observation data for Northwest San Angelo on 05/24/2020      Previous  Date  Next       Current Mesonet Observations  Soil Data  Daily Summary Page  Observations in Plain Language
KASU 240500Z 08004KT 22/13 A2983 RMK A01 T02160132  RH  061%=      5-min Rain = 0
KASU 240505Z 06005KT 22/13 A2983 RMK A01 T02160133  RH  061%=      5-min Rain = 0
KASU 240510Z 05004KT 21/13 A2983 RMK A01 T02100134  RH  064%=      5-min Rain = 0
KASU 240515Z 05003KT 21/14 A2983 RMK A01 T02070136  RH  066%=      5-min Rain = 0
KASU 240520Z 06004KT 21/14 A2984 RMK A01 T02060138  RH  068%=      5-min Rain = 0
KASU 240525Z 04005KT 21/14 A2984 RMK A01 T02050138  RH  068%=      5-min Rain = 0
KASU 240530Z 06005KT 20/14 A2985 RMK A01 T02040140  RH  070%=      5-min Rain = 0
KASU 240535Z 06005KT 20/14 A2985 RMK A01 T02010141  RH  071%=      5-min Rain = 0
KASU 240540Z 06003KT 20/14 A2985 RMK A01 T02000141  RH  072%=      5-min Rain = 0
KASU 240545Z 06004KT 20/14 A2985 RMK A01 T01990141  RH  072%=      5-min Rain = 0
KASU 240550Z 06002KT 20/14 A2986 RMK A01 T01970141  RH  073%=      5-min Rain = 0
KASU 240555Z 03003KT 20/14 A2985 RMK A01 T01970141  RH  073%=      5-min Rain = 0
KASU 240600Z 03004KT 20/14 A2985 RMK A01 T01970140  RH  073%=      5-min Rain = 0
KASU 240605Z 03004KT 20/14 A2986 RMK A01 T01990139  RH  071%=      5-min Rain = 0
KASU 240610Z 03004KT 20/14 A2986 RMK A01 T02000138  RH  070%=      5-min Rain = 0
KASU 240615Z 04004KT 20/14 A2986 RMK A01 T02010136  RH  069%=      5-min Rain = 0
KASU 240620Z 06003KT 20/14 A2986 RMK A01 T02010135  RH  068%=      5-min Rain = 0
KASU 240625Z 08003KT 20/14 A2985 RMK A01 T01990138  RH  071%=      5-min Rain = 0
KASU 240630Z 11004KT 20/14 A2985 RMK A01 T01970137  RH  071%=      5-min Rain = 0
KASU 240635Z 14005KT 20/14 A2986 RMK A01 T01950139  RH  073%=      5-min Rain = 0
KASU 240640Z 14004KT 19/14 A2986 RMK A01 T01930139  RH  074%=      5-min Rain = 0
KASU 240645Z 14003KT 19/14 A2986 RMK A01 T01930140  RH  074%=      5-min Rain = 0
KASU 240650Z 13002KT 19/14 A2986 RMK A01 T01930139  RH  074%=      5-min Rain = 0
KASU 240655Z 07001KT 19/14 A2986 RMK A01 T01930138  RH  073%=      5-min Rain = 0
KASU 240700Z 12001KT 19/14 A2986 RMK A01 T01930140  RH  074%=      5-min Rain = 0
KASU 240705Z 13003KT 19/14 A2985 RMK A01 T01930137  RH  073%=      5-min Rain = 0
KASU 240710Z 15003KT 20/14 A2985 RMK A01 T01950137  RH  072%=      5-min Rain = 0
KASU 240715Z 13003KT 20/14 A2985 RMK A01 T01950136  RH  072%=      5-min Rain = 0
KASU 240720Z 10003KT 20/13 A2985 RMK A01 T01950134  RH  070%=      5-min Rain = 0
KASU 240725Z 09003KT 20/13 A2985 RMK A01 T01960133  RH  070%=      5-min Rain = 0
KASU 240730Z 10003KT 20/13 A2985 RMK A01 T01950133  RH  070%=      5-min Rain = 0
KASU 240735Z 11003KT 19/13 A2985 RMK A01 T01940134  RH  071%=      5-min Rain = 0
KASU 240740Z 14001KT 19/14 A2985 RMK A01 T01910135  RH  073%=      5-min Rain = 0
KASU 240745Z 16001KT 19/14 A2985 RMK A01 T01900136  RH  074%=      5-min Rain = 0
KASU 240750Z 18003KT 19/14 A2985 RMK A01 T01880137  RH  075%=      5-min Rain = 0
KASU 240755Z 18003KT 19/13 A2985 RMK A01 T01870133  RH  074%=      5-min Rain = 0
KASU 240800Z 16002KT 19/13 A2984 RMK A01 T01890131  RH  072%=      5-min Rain = 0
KASU 240805Z 13002KT 20/13 A2984 RMK A01 T01960129  RH  068%=      5-min Rain = 0
KASU 240810Z 14001KT 20/13 A2985 RMK A01 T01950133  RH  070%=      5-min Rain = 0
KASU 240815Z 12000KT 19/13 A2985 RMK A01 T01870134  RH  074%=      5-min Rain = 0
KASU 240820Z 14002KT 18/13 A2985 RMK A01 T01840133  RH  075%=      5-min Rain = 0
KASU 240825Z 10003KT 19/13 A2984 RMK A01 T01860133  RH  074%=      5-min Rain = 0
KASU 240830Z 13002KT 18/13 A2985 RMK A01 T01840134  RH  076%=      5-min Rain = 0
KASU 240835Z 07002KT 18/13 A2984 RMK A01 T01810133  RH  077%=      5-min Rain = 0
KASU 240840Z 03002KT 18/13 A2984 RMK A01 T01790133  RH  078%=      5-min Rain = 0
KASU 240845Z 03001KT 17/13 A2984 RMK A01 T01740133  RH  080%=      5-min Rain = 0
KASU 240850Z 01001KT 17/13 A2984 RMK A01 T01720133  RH  081%=      5-min Rain = 0
KASU 240855Z 04003KT 17/13 A2984 RMK A01 T01710132  RH  081%=      5-min Rain = 0
KASU 240900Z 04003KT 17/13 A2984 RMK A01 T01710132  RH  081%=      5-min Rain = 0
KASU 240905Z 03004KT 17/13 A2983 RMK A01 T01730131  RH  079%=      5-min Rain = 0
KASU 240910Z 02003KT 18/13 A2983 RMK A01 T01780130  RH  077%=      5-min Rain = 0
KASU 240915Z 01003KT 18/13 A2983 RMK A01 T01780128  RH  076%=      5-min Rain = 0
KASU 240920Z 01003KT 17/13 A2983 RMK A01 T01710127  RH  078%=      5-min Rain = 0
KASU 240925Z 32003KT 17/13 A2983 RMK A01 T01690127  RH  079%=      5-min Rain = 0
KASU 240930Z 31003KT 17/13 A2983 RMK A01 T01680128  RH  080%=      5-min Rain = 0
KASU 240935Z 30002KT 17/13 A2983 RMK A01 T01670128  RH  081%=      5-min Rain = 0
KASU 240940Z 30004KT 17/13 A2983 RMK A01 T01650128  RH  082%=      5-min Rain = 0
KASU 240945Z 31003KT 17/13 A2983 RMK A01 T01660130  RH  083%=      5-min Rain = 0
KASU 240950Z 32003KT 17/13 A2983 RMK A01 T01650130  RH  083%=      5-min Rain = 0
KASU 240955Z 32002KT 16/13 A2983 RMK A01 T01640131  RH  084%=      5-min Rain = 0
KASU 241000Z 35001KT 16/13 A2984 RMK A01 T01620130  RH  084%=      5-min Rain = 0
KASU 241005Z 22001KT 16/13 A2984 RMK A01 T01630131  RH  085%=      5-min Rain = 0
KASU 241010Z 01000KT 16/13 A2984 RMK A01 T01630132  RH  085%=      5-min Rain = 0
KASU 241015Z 04002KT 16/13 A2984 RMK A01 T01630132  RH  085%=      5-min Rain = 0
KASU 241020Z 06003KT 16/13 A2984 RMK A01 T01620131  RH  085%=      5-min Rain = 0
KASU 241025Z 09003KT 16/13 A2984 RMK A01 T01610131  RH  086%=      5-min Rain = 0
KASU 241030Z 10003KT 16/13 A2984 RMK A01 T01600131  RH  086%=      5-min Rain = 0
KASU 241035Z 10002KT 16/13 A2984 RMK A01 T01590130  RH  087%=      5-min Rain = 0
KASU 241040Z 11003KT 16/13 A2985 RMK A01 T01580131  RH  087%=      5-min Rain = 0
KASU 241045Z 12003KT 16/13 A2985 RMK A01 T01580131  RH  087%=      5-min Rain = 0
KASU 241050Z 13001KT 16/13 A2985 RMK A01 T01580131  RH  087%=      5-min Rain = 0
KASU 241055Z 11001KT 16/13 A2985 RMK A01 T01580131  RH  087%=      5-min Rain = 0
KASU 241100Z 10002KT 16/13 A2985 RMK A01 T01580131  RH  088%=      5-min Rain = 0
KASU 241105Z 09002KT 16/13 A2985 RMK A01 T01590132  RH  088%=      5-min Rain = 0
KASU 241110Z 10003KT 16/13 A2985 RMK A01 T01590132  RH  088%=      5-min Rain = 0
KASU 241115Z 10005KT 16/13 A2985 RMK A01 T01600134  RH  088%=      5-min Rain = 0
KASU 241120Z 11003KT 16/13 A2985 RMK A01 T01600134  RH  088%=      5-min Rain = 0
KASU 241125Z 10002KT 16/14 A2985 RMK A01 T01600135  RH  088%=      5-min Rain = 0
KASU 241130Z 08002KT 16/14 A2985 RMK A01 T01610136  RH  089%=      5-min Rain = 0
KASU 241135Z 07003KT 16/14 A2985 RMK A01 T01610136  RH  089%=      5-min Rain = 0
KASU 241140Z 07002KT 16/14 A2985 RMK A01 T01620138  RH  089%=      5-min Rain = 0
KASU 241145Z 06001KT 16/14 A2985 RMK A01 T01640139  RH  089%=      5-min Rain = 0
KASU 241150Z 02000KT 16/14 A2985 RMK A01 T01610136  RH  089%=      5-min Rain = 0
KASU 241155Z 03001KT 16/14 A2986 RMK A01 T01610137  RH  089%=      5-min Rain = 0
KASU 241200Z 26001KT 16/14 A2986 RMK A01 T01610136  RH  089%=      5-min Rain = 0
KASU 241205Z 27002KT 16/14 A2986 RMK A01 T01600136  RH  089%=      5-min Rain = 0
KASU 241210Z 26004KT 16/14 A2987 RMK A01 T01580135  RH  090%=      5-min Rain = 0
KASU 241215Z 26004KT 16/14 A2987 RMK A01 T01580135  RH  090%=      5-min Rain = 0
KASU 241220Z 27004KT 16/14 A2987 RMK A01 T01600137  RH  090%=      5-min Rain = 0
KASU 241225Z 27003KT 16/14 A2988 RMK A01 T01630139  RH  090%=      5-min Rain = 0
KASU 241230Z 26003KT 17/14 A2988 RMK A01 T01650141  RH  090%=      5-min Rain = 0
KASU 241235Z 26004KT 17/14 A2988 RMK A01 T01680144  RH  090%=      5-min Rain = 0
KASU 241240Z 24004KT 17/15 A2988 RMK A01 T01720147  RH  089%=      5-min Rain = 0
KASU 241245Z 24004KT 18/15 A2989 RMK A01 T01760149  RH  088%=      5-min Rain = 0
KASU 241250Z 24003KT 18/15 A2989 RMK A01 T01800149  RH  086%=      5-min Rain = 0
KASU 241255Z 21002KT 18/15 A2989 RMK A01 T01830148  RH  083%=      5-min Rain = 0
KASU 241300Z 18001KT 19/15 A2989 RMK A01 T01880148  RH  081%=      5-min Rain = 0
KASU 241305Z 18002KT 19/15 A2989 RMK A01 T01930146  RH  077%=      5-min Rain = 0
KASU 241310Z 20004KT 20/15 A2989 RMK A01 T01960145  RH  076%=      5-min Rain = 0
KASU 241315Z 19005KT 20/15 A2989 RMK A01 T01980145  RH  074%=      5-min Rain = 0
KASU 241320Z 15005KT 20/15 A2989 RMK A01 T02030148  RH  074%=      5-min Rain = 0
KASU 241325Z 13006KT 21/15 A2989 RMK A01 T02070152  RH  074%=      5-min Rain = 0
KASU 241330Z 13007KT 21/15 A2989 RMK A01 T02070152  RH  074%=      5-min Rain = 0
KASU 241335Z 14009KT 21/15 A2989 RMK A01 T02070152  RH  074%=      5-min Rain = 0
KASU 241340Z 15010G15KT 21/15 A2989 RMK A01 T02050153  RH  075%=      5-min Rain = 0
KASU 241345Z 16009KT 21/15 A2989 RMK A01 T02060154  RH  075%=      5-min Rain = 0
KASU 241350Z 16010KT 21/16 A2989 RMK A01 T02080155  RH  075%=      5-min Rain = 0
KASU 241355Z 15010KT 21/16 A2988 RMK A01 T02120159  RH  075%=      5-min Rain = 0
KASU 241400Z 15011G16KT 22/16 A2988 RMK A01 T02180163  RH  074%=      5-min Rain = 0
KASU 241405Z 14011KT 22/16 A2988 RMK A01 T02200163  RH  074%=      5-min Rain = 0
KASU 241410Z 15010KT 22/17 A2988 RMK A01 T02230166  RH  074%=      5-min Rain = 0
KASU 241415Z 16009KT 23/17 A2988 RMK A01 T02270167  RH  072%=      5-min Rain = 0
KASU 241420Z 15010KT 23/17 A2988 RMK A01 T02290168  RH  072%=      5-min Rain = 0
KASU 241425Z 15012G17KT 23/17 A2988 RMK A01 T02290168  RH  072%=      5-min Rain = 0
KASU 241430Z 16010G15KT 23/17 A2988 RMK A01 T02330171  RH  072%=      5-min Rain = 0
KASU 241435Z 15013KT 24/17 A2988 RMK A01 T02350170  RH  071%=      5-min Rain = 0
KASU 241440Z 15011KT 24/17 A2988 RMK A01 T02360172  RH  071%=      5-min Rain = 0
KASU 241445Z 13011G17KT 24/17 A2988 RMK A01 T02370171  RH  070%=      5-min Rain = 0
KASU 241450Z 13012KT 24/17 A2988 RMK A01 T02370169  RH  069%=      5-min Rain = 0
KASU 241455Z 13012KT 24/17 A2988 RMK A01 T02350168  RH  069%=      5-min Rain = 0
KASU 241500Z 13010KT 24/17 A2988 RMK A01 T02370170  RH  069%=      5-min Rain = 0
KASU 241505Z 14011G17KT 24/17 A2987 RMK A01 T02430172  RH  068%=      5-min Rain = 0
KASU 241510Z 15014G19KT 25/18 A2988 RMK A01 T02510175  RH  066%=      5-min Rain = 0
KASU 241515Z 15017G22KT 25/17 A2988 RMK A01 T02540172  RH  064%=      5-min Rain = 0
KASU 241520Z 16014G21KT 25/17 A2988 RMK A01 T02540172  RH  063%=      5-min Rain = 0
KASU 241525Z 17014G19KT 25/17 A2987 RMK A01 T02490169  RH  064%=      5-min Rain = 0
KASU 241530Z 17012G18KT 25/17 A2987 RMK A01 T02480169  RH  065%=      5-min Rain = 0
KASU 241535Z 18013G19KT 26/17 A2987 RMK A01 T02560172  RH  063%=      5-min Rain = 0
KASU 241540Z 18016G22KT 25/17 A2987 RMK A01 T02540170  RH  063%=      5-min Rain = 0
KASU 241545Z 18015G20KT 25/17 A2986 RMK A01 T02540168  RH  062%=      5-min Rain = 0
KASU 241550Z 17016G21KT 26/17 A2986 RMK A01 T02560170  RH  062%=      5-min Rain = 0
KASU 241555Z 17016KT 26/17 A2986 RMK A01 T02600169  RH  060%=      5-min Rain = 0
KASU 241600Z 18016G21KT 26/17 A2986 RMK A01 T02620171  RH  060%=      5-min Rain = 0
KASU 241605Z 16014G22KT 27/18 A2986 RMK A01 T02710175  RH  059%=      5-min Rain = 0
KASU 241610Z 17017G22KT 27/17 A2986 RMK A01 T02660170  RH  058%=      5-min Rain = 0
KASU 241615Z 17015G20KT 27/17 A2986 RMK A01 T02660170  RH  058%=      5-min Rain = 0
KASU 241620Z 17018G25KT 27/17 A2986 RMK A01 T02680168  RH  057%=      5-min Rain = 0
KASU 241625Z 17017G23KT 27/17 A2986 RMK A01 T02710170  RH  057%=      5-min Rain = 0
KASU 241630Z 17015G22KT 27/17 A2986 RMK A01 T02720171  RH  057%=      5-min Rain = 0
KASU 241635Z 17015G21KT 27/17 A2986 RMK A01 T02720169  RH  056%=      5-min Rain = 0
KASU 241640Z 16017G22KT 27/17 A2986 RMK A01 T02720168  RH  056%=      5-min Rain = 0
KASU 241645Z 17015G23KT 28/17 A2986 RMK A01 T02760170  RH  055%=      5-min Rain = 0
KASU 241650Z 16015G20KT 28/17 A2986 RMK A01 T02810169  RH  053%=      5-min Rain = 0
KASU 241655Z 17017G23KT 28/17 A2986 RMK A01 T02800169  RH  053%=      5-min Rain = 0
KASU 241700Z 16015G20KT 28/17 A2986 RMK A01 T02780167  RH  053%=      5-min Rain = 0
KASU 241705Z 18016G21KT 27/17 A2986 RMK A01 T02740167  RH  055%=      5-min Rain = 0
KASU 241710Z 18016G23KT 28/17 A2986 RMK A01 T02790168  RH  054%=      5-min Rain = 0
KASU 241715Z 18014G21KT 28/17 A2985 RMK A01 T02840171  RH  053%=      5-min Rain = 0
KASU 241720Z 17017G23KT 29/17 A2986 RMK A01 T02880168  RH  051%=      5-min Rain = 0
KASU 241725Z 18017G24KT 29/17 A2985 RMK A01 T02860167  RH  051%=      5-min Rain = 0
KASU 241730Z 19016G23KT 29/17 A2985 RMK A01 T02870167  RH  051%=      5-min Rain = 0
KASU 241735Z 18015G21KT 29/17 A2985 RMK A01 T02880167  RH  051%=      5-min Rain = 0
KASU 241740Z 18017G23KT 29/17 A2985 RMK A01 T02860165  RH  050%=      5-min Rain = 0
KASU 241745Z 18015KT 29/17 A2985 RMK A01 T02870166  RH  050%=      5-min Rain = 0
KASU 241750Z 17015G22KT 29/17 A2984 RMK A01 T02920165  RH  049%=      5-min Rain = 0
KASU 241755Z 17013G18KT 29/17 A2984 RMK A01 T02930167  RH  049%=      5-min Rain = 0
KASU 241800Z 18015G21KT 29/17 A2984 RMK A01 T02900165  RH  049%=      5-min Rain = 0
KASU 241805Z 16012G17KT 29/17 A2984 RMK A01 T02920167  RH  049%=      5-min Rain = 0
KASU 241810Z 15012G17KT 29/17 A2983 RMK A01 T02940169  RH  049%=      5-min Rain = 0
KASU 241815Z 15013G19KT 29/17 A2983 RMK A01 T02920168  RH  050%=      5-min Rain = 0
KASU 241820Z 15012G18KT 30/17 A2983 RMK A01 T02950169  RH  049%=      5-min Rain = 0
KASU 241825Z 16015G21KT 30/17 A2983 RMK A01 T02960167  RH  048%=      5-min Rain = 0
KASU 241830Z 17013G20KT 30/17 A2982 RMK A01 T02990169  RH  048%=      5-min Rain = 0
KASU 241835Z 16012G21KT 30/17 A2982 RMK A01 T02980167  RH  048%=      5-min Rain = 0
KASU 241840Z 17015G22KT 30/17 A2981 RMK A01 T02990167  RH  047%=      5-min Rain = 0
KASU 241845Z 18014KT 30/17 A2981 RMK A01 T03020169  RH  047%=      5-min Rain = 0
KASU 241850Z 16014G22KT 30/17 A2981 RMK A01 T03000165  RH  046%=      5-min Rain = 0
KASU 241855Z 16013G19KT 31/17 A2981 RMK A01 T03060169  RH  046%=      5-min Rain = 0
KASU 241900Z 17014G20KT 31/17 A298 RMK A01 T03080165  RH  044%=      5-min Rain = 0
KASU 241905Z 18015G24KT 31/16 A298 RMK A01 T03070161  RH  044%=      5-min Rain = 0
KASU 241910Z 18014KT 31/17 A2979 RMK A01 T03100165  RH  044%=      5-min Rain = 0
KASU 241915Z 17014G22KT 31/16 A2979 RMK A01 T03100163  RH  043%=      5-min Rain = 0
KASU 241920Z 17013G20KT 31/16 A2979 RMK A01 T03110163  RH  043%=      5-min Rain = 0
KASU 241925Z 19014G21KT 31/16 A2979 RMK A01 T03130164  RH  043%=      5-min Rain = 0
KASU 241930Z 18016G21KT 31/16 A2979 RMK A01 T03120163  RH  043%=      5-min Rain = 0
KASU 241935Z 16014G19KT 31/16 A2978 RMK A01 T03120162  RH  042%=      5-min Rain = 0
KASU 241940Z 18014KT 31/16 A2978 RMK A01 T03120163  RH  043%=      5-min Rain = 0
KASU 241945Z 18015G23KT 31/16 A2977 RMK A01 T03090161  RH  043%=      5-min Rain = 0
KASU 241950Z 17015G21KT 32/16 A2977 RMK A01 T03150162  RH  042%=      5-min Rain = 0
KASU 241955Z 17015G20KT 31/16 A2977 RMK A01 T03120162  RH  042%=      5-min Rain = 0
KASU 242000Z 17014G21KT 31/16 A2976 RMK A01 T03120161  RH  042%=      5-min Rain = 0
KASU 242005Z 17015KT 31/16 A2976 RMK A01 T03130163  RH  042%=      5-min Rain = 0
KASU 242010Z 17013G18KT 31/16 A2976 RMK A01 T03120162  RH  042%=      5-min Rain = 0
KASU 242015Z 17013G20KT 32/16 A2975 RMK A01 T03150163  RH  042%=      5-min Rain = 0
KASU 242020Z 16015G21KT 31/16 A2974 RMK A01 T03140161  RH  042%=      5-min Rain = 0
KASU 242025Z 15013KT 32/16 A2974 RMK A01 T03180163  RH  042%=      5-min Rain = 0
KASU 242030Z 15013G18KT 32/16 A2974 RMK A01 T03150160  RH  041%=      5-min Rain = 0
KASU 242035Z 16009G14KT 32/16 A2973 RMK A01 T03170164  RH  042%=      5-min Rain = 0
KASU 242040Z 18010G16KT 32/17 A2973 RMK A01 T03200167  RH  042%=      5-min Rain = 0
KASU 242045Z 16013G19KT 32/16 A2972 RMK A01 T03200164  RH  041%=      5-min Rain = 0
KASU 242050Z 17013G18KT 32/16 A2972 RMK A01 T03180161  RH  041%=      5-min Rain = 0
KASU 242055Z 18013G19KT 32/16 A2971 RMK A01 T03150161  RH  041%=      5-min Rain = 0
KASU 242100Z 17012G18KT 31/16 A2971 RMK A01 T03090159  RH  042%=      5-min Rain = 0
KASU 242105Z 17011G17KT 31/16 A2971 RMK A01 T03110157  RH  041%=      5-min Rain = 0
KASU 242110Z 17012G18KT 31/16 A2971 RMK A01 T03060158  RH  043%=      5-min Rain = 0
KASU 242115Z 15011G17KT 31/16 A2971 RMK A01 T03140161  RH  042%=      5-min Rain = 0
KASU 242120Z 16012G17KT 32/16 A2971 RMK A01 T03150160  RH  041%=      5-min Rain = 0
KASU 242125Z 16012KT 31/16 A297 RMK A01 T03130160  RH  041%=      5-min Rain = 0
KASU 242130Z 17009KT 31/16 A297 RMK A01 T03120161  RH  042%=      5-min Rain = 0
KASU 242135Z 18010KT 31/16 A297 RMK A01 T03090161  RH  043%=      5-min Rain = 0
KASU 242140Z 17010KT 31/16 A297 RMK A01 T03070158  RH  043%=      5-min Rain = 0
KASU 242145Z 19012G19KT 31/16 A297 RMK A01 T03080160  RH  043%=      5-min Rain = 0
KASU 242150Z 18012KT 31/16 A297 RMK A01 T03050157  RH  043%=      5-min Rain = 0
KASU 242155Z 17010G17KT 30/16 A297 RMK A01 T03020159  RH  044%=      5-min Rain = 0
KASU 242200Z 17009G14KT 30/16 A297 RMK A01 T02990161  RH  045%=      5-min Rain = 0
KASU 242205Z 18009G14KT 30/16 A297 RMK A01 T02990159  RH  045%=      5-min Rain = 0
KASU 242210Z 18012G17KT 30/16 A297 RMK A01 T02990158  RH  045%=      5-min Rain = 0
KASU 242215Z 18012G17KT 30/16 A2969 RMK A01 T02980158  RH  045%=      5-min Rain = 0
KASU 242220Z 18011G16KT 30/16 A297 RMK A01 T02960160  RH  046%=      5-min Rain = 0
KASU 242225Z 18010KT 29/17 A297 RMK A01 T02930165  RH  048%=      5-min Rain = 0
KASU 242230Z 18010G16KT 29/17 A297 RMK A01 T02900165  RH  049%=      5-min Rain = 0
KASU 242235Z 18011G16KT 29/16 A297 RMK A01 T02920162  RH  048%=      5-min Rain = 0
KASU 242240Z 18010KT 29/16 A2969 RMK A01 T02910164  RH  048%=      5-min Rain = 0
KASU 242245Z 17009KT 29/16 A2969 RMK A01 T02910164  RH  049%=      5-min Rain = 0
KASU 242250Z 17007G13KT 29/17 A2969 RMK A01 T02910167  RH  049%=      5-min Rain = 0
KASU 242255Z 17008KT 29/17 A2968 RMK A01 T02910166  RH  049%=      5-min Rain = 0
KASU 242300Z 16007KT 29/17 A2968 RMK A01 T02900168  RH  050%=      5-min Rain = 0
KASU 242305Z 17008KT 29/17 A2969 RMK A01 T02890169  RH  051%=      5-min Rain = 0
KASU 242310Z 17007KT 29/17 A2969 RMK A01 T02870170  RH  051%=      5-min Rain = 0
KASU 242315Z 16008KT 29/17 A2969 RMK A01 T02860168  RH  051%=      5-min Rain = 0
KASU 242320Z 17008KT 29/17 A2969 RMK A01 T02850168  RH  051%=      5-min Rain = 0
KASU 242325Z 17010KT 28/17 A2969 RMK A01 T02840167  RH  052%=      5-min Rain = 0
KASU 242330Z 21018G40KT 28/16 A297 RMK A01 T02760158  RH  051%=      5-min Rain = 0
KASU 242335Z 23024G33KT 22/12 A2973 RMK A01 T02200123  RH  056%=      5-min Rain = 0
KASU 242340Z 22025G33KT 21/12 A2973 RMK A01 T02110119  RH  057%=      5-min Rain = 0
KASU 242345Z 23024G45KT 21/12 A297 RMK A01 T02110115  RH  056%=      5-min Rain = 0
KASU 242350Z 23034G50KT 21/11 A2969 RMK A01 T02100114  RH  056%=      5-min Rain = 0
KASU 242355Z 22029G39KT 20/13 A297 RMK A01 T01950126  RH  067%=      5-min Rain = 0
KASU 250000Z 21024G37KT 18/13 A2972 RMK A01 T01800132  RH  077%=      5-min Rain = 0.04
KASU 250005Z 22022G34KT 18/13 A2972 RMK A01 T01800132  RH  076%=      5-min Rain = 0.04
KASU 250010Z 22021G30KT 18/13 A2972 RMK A01 T01800131  RH  076%=      5-min Rain = 0.04
KASU 250015Z 22020G26KT 18/13 A2973 RMK A01 T01800129  RH  075%=      5-min Rain = 0.02
KASU 250020Z 23016G23KT 18/13 A2973 RMK A01 T01820129  RH  074%=      5-min Rain = 0.01
KASU 250025Z 23017G24KT 19/13 A2973 RMK A01 T01890126  RH  069%=      5-min Rain = 0.01
KASU 250030Z 23013G19KT 19/13 A2974 RMK A01 T01920126  RH  068%=      5-min Rain = 0
KASU 250035Z 24015G21KT 19/12 A2975 RMK A01 T01940124  RH  067%=      5-min Rain = 0
KASU 250040Z 25013G21KT 19/12 A2976 RMK A01 T01940124  RH  066%=      5-min Rain = 0
KASU 250045Z 27012G25KT 19/12 A2976 RMK A01 T01930124  RH  067%=      5-min Rain = 0
KASU 250050Z 27009G15KT 19/13 A2977 RMK A01 T01890127  RH  070%=      5-min Rain = 0.01
KASU 250055Z 30010KT 19/13 A2976 RMK A01 T01850131  RH  074%=      5-min Rain = 0
KASU 250100Z 30011G16KT 18/14 A2976 RMK A01 T01810136  RH  078%=      5-min Rain = 0.01
KASU 250105Z 31012G19KT 18/14 A2976 RMK A01 T01780137  RH  080%=      5-min Rain = 0.01
KASU 250110Z 32016G23KT 18/14 A2973 RMK A01 T01770137  RH  081%=      5-min Rain = 0
KASU 250115Z 32018KT 18/14 A297 RMK A01 T01750138  RH  082%=      5-min Rain = 0.01
KASU 250120Z 33018G23KT 17/14 A2968 RMK A01 T01730137  RH  083%=      5-min Rain = 0
KASU 250125Z 34018G23KT 17/14 A2965 RMK A01 T01730135  RH  082%=      5-min Rain = 0
KASU 250130Z 34019G26KT 17/13 A2963 RMK A01 T01740133  RH  080%=      5-min Rain = 0
KASU 250135Z 35017G23KT 18/13 A2963 RMK A01 T01780130  RH  076%=      5-min Rain = 0
KASU 250140Z 34013G18KT 18/13 A2964 RMK A01 T01820128  RH  073%=      5-min Rain = 0
KASU 250145Z 24009KT 18/13 A2965 RMK A01 T01830129  RH  073%=      5-min Rain = 0
KASU 250150Z 29009G18KT 18/13 A2964 RMK A01 T01790130  RH  076%=      5-min Rain = 0
KASU 250155Z 34013G21KT 18/13 A2963 RMK A01 T01840126  RH  072%=      5-min Rain = 0
KASU 250200Z 21006G11KT 19/13 A2964 RMK A01 T01860125  RH  070%=      5-min Rain = 0
KASU 250205Z 26005G12KT 19/12 A2964 RMK A01 T01850124  RH  070%=      5-min Rain = 0
KASU 250210Z 26003KT 19/12 A2964 RMK A01 T01870124  RH  069%=      5-min Rain = 0
KASU 250215Z 22001KT 19/13 A2964 RMK A01 T01850126  RH  072%=      5-min Rain = 0
KASU 250220Z 26002KT 18/13 A2963 RMK A01 T01820128  RH  074%=      5-min Rain = 0
KASU 250225Z 19004KT 18/13 A2963 RMK A01 T01780131  RH  077%=      5-min Rain = 0
KASU 250230Z 21004KT 18/13 A2963 RMK A01 T01750132  RH  079%=      5-min Rain = 0
KASU 250235Z 22004KT 17/13 A2963 RMK A01 T01740131  RH  079%=      5-min Rain = 0
KASU 250240Z 28004KT 17/13 A2963 RMK A01 T01730131  RH  079%=      5-min Rain = 0
KASU 250245Z 26003KT 17/13 A2962 RMK A01 T01730132  RH  080%=      5-min Rain = 0
KASU 250250Z 27002KT 17/13 A2963 RMK A01 T01730132  RH  080%=      5-min Rain = 0
KASU 250255Z 34002KT 17/13 A2963 RMK A01 T01720132  RH  080%=      5-min Rain = 0
KASU 250300Z 33001KT 17/13 A2964 RMK A01 T01730133  RH  081%=      5-min Rain = 0
KASU 250305Z 06003KT 17/13 A2966 RMK A01 T01720134  RH  081%=      5-min Rain = 0
KASU 250310Z 07003KT 17/14 A2967 RMK A01 T01720136  RH  082%=      5-min Rain = 0
KASU 250315Z 07007KT 17/14 A2968 RMK A01 T01700136  RH  083%=      5-min Rain = 0
KASU 250320Z 07008KT 17/14 A2968 RMK A01 T01690137  RH  085%=      5-min Rain = 0
KASU 250325Z 07010KT 17/14 A2969 RMK A01 T01690136  RH  085%=      5-min Rain = 0
KASU 250330Z 07014KT 17/14 A2969 RMK A01 T01700137  RH  084%=      5-min Rain = 0
KASU 250335Z 07015KT 17/14 A2969 RMK A01 T01700138  RH  084%=      5-min Rain = 0
KASU 250340Z 07016KT 17/14 A297 RMK A01 T01720138  RH  084%=      5-min Rain = 0
KASU 250345Z 08018G25KT 17/14 A2972 RMK A01 T01740139  RH  083%=      5-min Rain = 0
KASU 250350Z 08020G25KT 18/14 A2973 RMK A01 T01760139  RH  083%=      5-min Rain = 0
KASU 250355Z 08020G25KT 18/14 A2975 RMK A01 T01760140  RH  083%=      5-min Rain = 0
KASU 250400Z 08020KT 18/14 A2977 RMK A01 T01770142  RH  084%=      5-min Rain = 0
KASU 250405Z 07020G25KT 18/14 A2978 RMK A01 T01770144  RH  084%=      5-min Rain = 0
KASU 250410Z 08022KT 18/15 A2977 RMK A01 T01760145  RH  086%=      5-min Rain = 0
KASU 250415Z 08022G27KT 18/15 A2979 RMK A01 T01760146  RH  087%=      5-min Rain = 0
KASU 250420Z 10018G26KT 18/15 A2979 RMK A01 T01750146  RH  087%=      5-min Rain = 0
KASU 250425Z 10017G24KT 17/15 A298 RMK A01 T01740146  RH  087%=      5-min Rain = 0
KASU 250430Z 11014G20KT 17/15 A2981 RMK A01 T01740146  RH  088%=      5-min Rain = 0
KASU 250435Z 10012KT 17/15 A2983 RMK A01 T01740147  RH  088%=      5-min Rain = 0
KASU 250440Z 10013G18KT 17/15 A2982 RMK A01 T01740147  RH  088%=      5-min Rain = 0
KASU 250445Z 09016G21KT 17/15 A2981 RMK A01 T01740147  RH  088%=      5-min Rain = 0
KASU 250450Z 09016G21KT 17/15 A2981 RMK A01 T01740148  RH  088%=      5-min Rain = 0
KASU 250455Z 08016G21KT 17/15 A2981 RMK A01 T01740148  RH  089%=      5-min Rain = 0

Page generated in 0.0428 seconds.